sensor_id;sensor_type;location;lat;lon;timestamp;P1;durP1;ratioP1;P2;durP2;ratioP2
37231;SDS011;23125;48.156;15.954;2022-11-15T00:00:32;35.58;;;20.50;;
37231;SDS011;23125;48.156;15.954;2022-11-15T00:02:58;33.72;;;20.48;;
37231;SDS011;23125;48.156;15.954;2022-11-15T00:05:24;30.02;;;19.60;;
37231;SDS011;23125;48.156;15.954;2022-11-15T00:07:50;35.20;;;21.05;;
37231;SDS011;23125;48.156;15.954;2022-11-15T00:10:16;30.58;;;19.92;;
37231;SDS011;23125;48.156;15.954;2022-11-15T00:12:42;35.78;;;21.17;;
37231;SDS011;23125;48.156;15.954;2022-11-15T00:15:08;39.45;;;20.52;;
37231;SDS011;23125;48.156;15.954;2022-11-15T00:17:33;33.70;;;21.60;;
37231;SDS011;23125;48.156;15.954;2022-11-15T00:19:59;30.42;;;20.10;;
37231;SDS011;23125;48.156;15.954;2022-11-15T00:22:30;27.85;;;18.42;;
37231;SDS011;23125;48.156;15.954;2022-11-15T00:24:59;33.30;;;20.17;;
37231;SDS011;23125;48.156;15.954;2022-11-15T00:27:25;37.47;;;21.55;;
37231;SDS011;23125;48.156;15.954;2022-11-15T00:29:52;39.25;;;22.92;;
37231;SDS011;23125;48.156;15.954;2022-11-15T00:32:18;33.97;;;20.40;;
37231;SDS011;23125;48.156;15.954;2022-11-15T00:34:44;34.33;;;20.83;;
37231;SDS011;23125;48.156;15.954;2022-11-15T00:37:10;35.40;;;20.67;;
37231;SDS011;23125;48.156;15.954;2022-11-15T00:39:36;37.47;;;22.45;;
37231;SDS011;23125;48.156;15.954;2022-11-15T00:42:02;38.20;;;21.98;;
37231;SDS011;23125;48.156;15.954;2022-11-15T00:44:28;39.35;;;22.35;;
37231;SDS011;23125;48.156;15.954;2022-11-15T00:46:53;38.13;;;21.80;;
37231;SDS011;23125;48.156;15.954;2022-11-15T00:49:19;36.42;;;21.30;;
37231;SDS011;23125;48.156;15.954;2022-11-15T00:51:45;33.10;;;20.45;;
37231;SDS011;23125;48.156;15.954;2022-11-15T00:54:11;39.28;;;21.98;;
37231;SDS011;23125;48.156;15.954;2022-11-15T00:56:37;40.92;;;23.40;;
37231;SDS011;23125;48.156;15.954;2022-11-15T00:59:03;40.88;;;22.92;;
37231;SDS011;23125;48.156;15.954;2022-11-15T01:01:28;40.97;;;23.48;;
37231;SDS011;23125;48.156;15.954;2022-11-15T01:03:54;41.28;;;23.05;;
37231;SDS011;23125;48.156;15.954;2022-11-15T01:06:20;41.88;;;23.50;;
37231;SDS011;23125;48.156;15.954;2022-11-15T01:08:46;41.05;;;23.55;;
37231;SDS011;23125;48.156;15.954;2022-11-15T01:11:12;39.95;;;22.33;;
37231;SDS011;23125;48.156;15.954;2022-11-15T01:13:38;40.25;;;22.95;;
37231;SDS011;23125;48.156;15.954;2022-11-15T01:16:06;50.15;;;27.70;;
37231;SDS011;23125;48.156;15.954;2022-11-15T01:18:34;45.90;;;25.08;;
37231;SDS011;23125;48.156;15.954;2022-11-15T01:21:03;48.28;;;26.55;;
37231;SDS011;23125;48.156;15.954;2022-11-15T01:23:37;48.25;;;25.88;;
37231;SDS011;23125;48.156;15.954;2022-11-15T01:26:04;57.33;;;29.63;;
37231;SDS011;23125;48.156;15.954;2022-11-15T01:28:32;64.97;;;33.13;;
37231;SDS011;23125;48.156;15.954;2022-11-15T01:31:04;66.72;;;36.13;;
37231;SDS011;23125;48.156;15.954;2022-11-15T01:33:34;80.90;;;40.88;;
37231;SDS011;23125;48.156;15.954;2022-11-15T01:36:04;59.88;;;29.75;;
37231;SDS011;23125;48.156;15.954;2022-11-15T01:38:31;58.80;;;29.50;;
37231;SDS011;23125;48.156;15.954;2022-11-15T01:40:57;62.75;;;31.63;;
37231;SDS011;23125;48.156;15.954;2022-11-15T01:45:58;64.63;;;31.67;;
37231;SDS011;23125;48.156;15.954;2022-11-15T01:48:30;111.25;;;47.75;;
37231;SDS011;23125;48.156;15.954;2022-11-15T01:51:02;124.50;;;52.33;;
37231;SDS011;23125;48.156;15.954;2022-11-15T01:53:34;61.28;;;29.85;;
37231;SDS011;23125;48.156;15.954;2022-11-15T01:56:04;55.95;;;27.02;;
37231;SDS011;23125;48.156;15.954;2022-11-15T01:58:32;58.97;;;28.17;;
37231;SDS011;23125;48.156;15.954;2022-11-15T02:00:58;47.95;;;24.15;;
37231;SDS011;23125;48.156;15.954;2022-11-15T02:03:26;50.60;;;26.77;;
37231;SDS011;23125;48.156;15.954;2022-11-15T02:06:07;52.50;;;24.55;;
37231;SDS011;23125;48.156;15.954;2022-11-15T02:08:33;52.85;;;25.02;;
37231;SDS011;23125;48.156;15.954;2022-11-15T02:10:59;53.55;;;25.70;;
37231;SDS011;23125;48.156;15.954;2022-11-15T02:13:25;51.00;;;25.98;;
37231;SDS011;23125;48.156;15.954;2022-11-15T02:16:13;47.72;;;24.92;;
37231;SDS011;23125;48.156;15.954;2022-11-15T02:18:46;44.38;;;23.50;;
37231;SDS011;23125;48.156;15.954;2022-11-15T02:23:57;45.58;;;23.60;;
37231;SDS011;23125;48.156;15.954;2022-11-15T02:30:00;50.47;;;24.60;;
37231;SDS011;23125;48.156;15.954;2022-11-15T02:35:35;44.28;;;23.63;;
37231;SDS011;23125;48.156;15.954;2022-11-15T02:40:53;47.33;;;23.90;;
37231;SDS011;23125;48.156;15.954;2022-11-15T02:43:33;43.95;;;22.65;;
37231;SDS011;23125;48.156;15.954;2022-11-15T02:46:45;41.25;;;21.98;;
37231;SDS011;23125;48.156;15.954;2022-11-15T02:49:34;37.00;;;20.23;;
37231;SDS011;23125;48.156;15.954;2022-11-15T02:52:00;40.33;;;21.95;;
37231;SDS011;23125;48.156;15.954;2022-11-15T02:54:30;39.30;;;21.15;;
37231;SDS011;23125;48.156;15.954;2022-11-15T02:56:59;39.83;;;20.80;;
37231;SDS011;23125;48.156;15.954;2022-11-15T03:04:55;38.00;;;21.63;;
37231;SDS011;23125;48.156;15.954;2022-11-15T03:10:23;38.30;;;20.42;;
37231;SDS011;23125;48.156;15.954;2022-11-15T03:15:23;31.02;;;17.20;;
37231;SDS011;23125;48.156;15.954;2022-11-15T03:20:55;20.92;;;12.48;;
37231;SDS011;23125;48.156;15.954;2022-11-15T03:23:23;21.75;;;12.98;;
37231;SDS011;23125;48.156;15.954;2022-11-15T03:25:51;23.45;;;13.90;;
37231;SDS011;23125;48.156;15.954;2022-11-15T03:28:20;18.33;;;11.20;;
37231;SDS011;23125;48.156;15.954;2022-11-15T03:30:51;20.10;;;12.02;;
37231;SDS011;23125;48.156;15.954;2022-11-15T03:33:20;15.85;;;10.43;;
37231;SDS011;23125;48.156;15.954;2022-11-15T03:35:47;17.73;;;11.00;;
37231;SDS011;23125;48.156;15.954;2022-11-15T03:38:20;17.17;;;10.95;;
37231;SDS011;23125;48.156;15.954;2022-11-15T03:40:54;17.10;;;10.75;;
37231;SDS011;23125;48.156;15.954;2022-11-15T03:46:13;17.52;;;11.63;;
37231;SDS011;23125;48.156;15.954;2022-11-15T03:48:43;17.48;;;11.25;;
37231;SDS011;23125;48.156;15.954;2022-11-15T03:51:15;18.52;;;11.35;;
37231;SDS011;23125;48.156;15.954;2022-11-15T03:53:42;19.05;;;12.23;;
37231;SDS011;23125;48.156;15.954;2022-11-15T03:56:08;18.02;;;11.75;;
37231;SDS011;23125;48.156;15.954;2022-11-15T03:58:34;19.15;;;12.45;;
37231;SDS011;23125;48.156;15.954;2022-11-15T04:01:00;18.40;;;11.50;;
37231;SDS011;23125;48.156;15.954;2022-11-15T04:03:26;20.73;;;12.63;;
37231;SDS011;23125;48.156;15.954;2022-11-15T04:05:51;19.92;;;12.88;;
37231;SDS011;23125;48.156;15.954;2022-11-15T04:08:17;24.70;;;13.52;;
37231;SDS011;23125;48.156;15.954;2022-11-15T04:10:43;18.95;;;11.77;;
37231;SDS011;23125;48.156;15.954;2022-11-15T04:13:09;20.05;;;12.52;;
37231;SDS011;23125;48.156;15.954;2022-11-15T04:15:35;20.85;;;12.27;;
37231;SDS011;23125;48.156;15.954;2022-11-15T04:18:01;19.70;;;12.02;;
37231;SDS011;23125;48.156;15.954;2022-11-15T04:20:28;17.85;;;12.63;;
37231;SDS011;23125;48.156;15.954;2022-11-15T04:23:15;18.30;;;11.82;;
37231;SDS011;23125;48.156;15.954;2022-11-15T04:26:02;18.30;;;11.18;;
37231;SDS011;23125;48.156;15.954;2022-11-15T04:28:30;18.33;;;11.60;;
37231;SDS011;23125;48.156;15.954;2022-11-15T04:30:56;19.60;;;11.45;;
37231;SDS011;23125;48.156;15.954;2022-11-15T04:33:22;19.88;;;11.20;;
37231;SDS011;23125;48.156;15.954;2022-11-15T04:35:48;19.70;;;12.18;;
37231;SDS011;23125;48.156;15.954;2022-11-15T04:38:33;17.52;;;11.27;;
37231;SDS011;23125;48.156;15.954;2022-11-15T04:40:59;20.92;;;12.25;;
37231;SDS011;23125;48.156;15.954;2022-11-15T04:43:25;18.23;;;11.30;;
37231;SDS011;23125;48.156;15.954;2022-11-15T04:45:51;18.35;;;11.65;;
37231;SDS011;23125;48.156;15.954;2022-11-15T04:48:16;18.95;;;10.88;;
37231;SDS011;23125;48.156;15.954;2022-11-15T04:50:42;19.15;;;11.25;;
37231;SDS011;23125;48.156;15.954;2022-11-15T04:53:08;17.98;;;11.18;;
37231;SDS011;23125;48.156;15.954;2022-11-15T04:55:34;20.10;;;11.45;;
37231;SDS011;23125;48.156;15.954;2022-11-15T04:58:00;19.50;;;11.90;;
37231;SDS011;23125;48.156;15.954;2022-11-15T05:00:29;17.88;;;10.75;;
37231;SDS011;23125;48.156;15.954;2022-11-15T05:02:56;18.52;;;10.90;;
37231;SDS011;23125;48.156;15.954;2022-11-15T05:05:41;17.50;;;11.25;;
37231;SDS011;23125;48.156;15.954;2022-11-15T05:08:07;18.05;;;11.43;;
37231;SDS011;23125;48.156;15.954;2022-11-15T05:10:33;18.25;;;11.25;;
37231;SDS011;23125;48.156;15.954;2022-11-15T05:12:59;16.63;;;10.50;;
37231;SDS011;23125;48.156;15.954;2022-11-15T05:15:24;18.50;;;11.32;;
37231;SDS011;23125;48.156;15.954;2022-11-15T05:17:50;17.02;;;10.32;;
37231;SDS011;23125;48.156;15.954;2022-11-15T05:20:16;19.23;;;11.38;;
37231;SDS011;23125;48.156;15.954;2022-11-15T05:22:42;20.38;;;11.60;;
37231;SDS011;23125;48.156;15.954;2022-11-15T05:25:08;19.77;;;11.48;;
37231;SDS011;23125;48.156;15.954;2022-11-15T05:27:34;17.65;;;10.15;;
37231;SDS011;23125;48.156;15.954;2022-11-15T05:30:00;18.77;;;11.45;;
37231;SDS011;23125;48.156;15.954;2022-11-15T05:32:25;18.67;;;11.05;;
37231;SDS011;23125;48.156;15.954;2022-11-15T05:34:52;17.17;;;11.00;;
37231;SDS011;23125;48.156;15.954;2022-11-15T05:37:20;18.65;;;11.50;;
37231;SDS011;23125;48.156;15.954;2022-11-15T05:39:46;17.85;;;11.25;;
37231;SDS011;23125;48.156;15.954;2022-11-15T05:42:15;18.33;;;11.40;;
37231;SDS011;23125;48.156;15.954;2022-11-15T05:47:10;17.67;;;10.88;;
37231;SDS011;23125;48.156;15.954;2022-11-15T05:49:41;19.13;;;10.80;;
37231;SDS011;23125;48.156;15.954;2022-11-15T05:52:09;18.25;;;11.55;;
37231;SDS011;23125;48.156;15.954;2022-11-15T05:57:05;18.27;;;10.10;;
37231;SDS011;23125;48.156;15.954;2022-11-15T05:59:31;19.02;;;11.40;;
37231;SDS011;23125;48.156;15.954;2022-11-15T06:01:58;17.98;;;11.02;;
37231;SDS011;23125;48.156;15.954;2022-11-15T06:04:25;18.27;;;10.60;;
37231;SDS011;23125;48.156;15.954;2022-11-15T06:06:51;18.83;;;12.07;;
37231;SDS011;23125;48.156;15.954;2022-11-15T06:09:17;17.42;;;10.93;;
37231;SDS011;23125;48.156;15.954;2022-11-15T06:11:43;18.27;;;11.43;;
37231;SDS011;23125;48.156;15.954;2022-11-15T06:14:09;17.17;;;12.25;;
37231;SDS011;23125;48.156;15.954;2022-11-15T06:16:34;19.88;;;12.10;;
37231;SDS011;23125;48.156;15.954;2022-11-15T06:19:01;18.85;;;11.43;;
37231;SDS011;23125;48.156;15.954;2022-11-15T06:21:27;19.88;;;12.27;;
37231;SDS011;23125;48.156;15.954;2022-11-15T06:23:54;20.83;;;12.20;;
37231;SDS011;23125;48.156;15.954;2022-11-15T06:26:20;17.58;;;11.07;;
37231;SDS011;23125;48.156;15.954;2022-11-15T06:28:46;17.75;;;10.20;;
37231;SDS011;23125;48.156;15.954;2022-11-15T06:31:11;17.83;;;9.20;;
37231;SDS011;23125;48.156;15.954;2022-11-15T06:33:38;15.20;;;9.27;;
37231;SDS011;23125;48.156;15.954;2022-11-15T06:36:05;15.90;;;10.32;;
37231;SDS011;23125;48.156;15.954;2022-11-15T06:38:33;18.65;;;10.90;;
37231;SDS011;23125;48.156;15.954;2022-11-15T06:41:07;17.35;;;10.88;;
37231;SDS011;23125;48.156;15.954;2022-11-15T06:43:34;14.70;;;9.52;;
37231;SDS011;23125;48.156;15.954;2022-11-15T06:46:00;16.85;;;9.52;;
37231;SDS011;23125;48.156;15.954;2022-11-15T06:48:28;18.30;;;11.00;;
37231;SDS011;23125;48.156;15.954;2022-11-15T06:50:55;16.75;;;10.07;;
37231;SDS011;23125;48.156;15.954;2022-11-15T06:53:22;15.50;;;9.48;;
37231;SDS011;23125;48.156;15.954;2022-11-15T06:55:49;16.73;;;9.95;;
37231;SDS011;23125;48.156;15.954;2022-11-15T06:58:15;15.55;;;9.38;;
37231;SDS011;23125;48.156;15.954;2022-11-15T07:00:42;17.20;;;10.00;;
37231;SDS011;23125;48.156;15.954;2022-11-15T07:03:08;15.20;;;9.30;;
37231;SDS011;23125;48.156;15.954;2022-11-15T07:05:35;15.70;;;9.38;;
37231;SDS011;23125;48.156;15.954;2022-11-15T07:08:01;15.45;;;9.15;;
37231;SDS011;23125;48.156;15.954;2022-11-15T07:10:28;13.77;;;8.75;;
37231;SDS011;23125;48.156;15.954;2022-11-15T07:12:55;13.98;;;9.02;;
37231;SDS011;23125;48.156;15.954;2022-11-15T07:15:25;14.40;;;9.00;;
37231;SDS011;23125;48.156;15.954;2022-11-15T07:17:51;15.02;;;8.65;;
37231;SDS011;23125;48.156;15.954;2022-11-15T07:20:17;15.98;;;9.10;;
37231;SDS011;23125;48.156;15.954;2022-11-15T07:22:44;13.93;;;8.80;;
37231;SDS011;23125;48.156;15.954;2022-11-15T07:25:12;16.80;;;9.38;;
37231;SDS011;23125;48.156;15.954;2022-11-15T07:27:38;14.35;;;9.35;;
37231;SDS011;23125;48.156;15.954;2022-11-15T07:30:04;14.63;;;8.88;;
37231;SDS011;23125;48.156;15.954;2022-11-15T07:32:30;14.95;;;9.02;;
37231;SDS011;23125;48.156;15.954;2022-11-15T07:34:56;14.00;;;8.98;;
37231;SDS011;23125;48.156;15.954;2022-11-15T07:37:22;14.68;;;8.95;;
37231;SDS011;23125;48.156;15.954;2022-11-15T07:39:48;15.48;;;9.18;;
37231;SDS011;23125;48.156;15.954;2022-11-15T07:42:14;15.15;;;9.05;;
37231;SDS011;23125;48.156;15.954;2022-11-15T07:44:58;14.23;;;8.57;;
37231;SDS011;23125;48.156;15.954;2022-11-15T07:47:24;13.65;;;8.50;;
37231;SDS011;23125;48.156;15.954;2022-11-15T07:49:50;14.20;;;8.82;;
37231;SDS011;23125;48.156;15.954;2022-11-15T07:52:17;14.18;;;8.73;;
37231;SDS011;23125;48.156;15.954;2022-11-15T07:54:43;14.32;;;8.90;;
37231;SDS011;23125;48.156;15.954;2022-11-15T07:57:09;17.35;;;9.57;;
37231;SDS011;23125;48.156;15.954;2022-11-15T07:59:35;15.73;;;9.05;;
37231;SDS011;23125;48.156;15.954;2022-11-15T08:02:01;14.77;;;8.70;;
37231;SDS011;23125;48.156;15.954;2022-11-15T08:04:27;15.23;;;8.55;;
37231;SDS011;23125;48.156;15.954;2022-11-15T08:06:53;14.63;;;8.93;;
37231;SDS011;23125;48.156;15.954;2022-11-15T08:09:19;16.88;;;9.30;;
37231;SDS011;23125;48.156;15.954;2022-11-15T08:11:45;16.92;;;9.63;;
37231;SDS011;23125;48.156;15.954;2022-11-15T08:14:11;14.57;;;8.35;;
37231;SDS011;23125;48.156;15.954;2022-11-15T08:16:37;14.98;;;8.85;;
37231;SDS011;23125;48.156;15.954;2022-11-15T08:19:02;14.82;;;8.95;;
37231;SDS011;23125;48.156;15.954;2022-11-15T08:21:28;14.43;;;8.60;;
37231;SDS011;23125;48.156;15.954;2022-11-15T08:23:54;15.95;;;8.10;;
37231;SDS011;23125;48.156;15.954;2022-11-15T08:26:20;15.18;;;8.63;;
37231;SDS011;23125;48.156;15.954;2022-11-15T08:28:47;14.93;;;8.60;;
37231;SDS011;23125;48.156;15.954;2022-11-15T08:31:13;12.95;;;8.43;;
37231;SDS011;23125;48.156;15.954;2022-11-15T08:33:41;17.07;;;8.53;;
37231;SDS011;23125;48.156;15.954;2022-11-15T08:36:10;14.23;;;9.10;;
37231;SDS011;23125;48.156;15.954;2022-11-15T08:38:40;15.90;;;8.23;;
37231;SDS011;23125;48.156;15.954;2022-11-15T08:41:09;14.90;;;8.95;;
37231;SDS011;23125;48.156;15.954;2022-11-15T08:43:38;14.10;;;8.13;;
37231;SDS011;23125;48.156;15.954;2022-11-15T08:46:04;12.38;;;7.88;;
37231;SDS011;23125;48.156;15.954;2022-11-15T08:48:30;12.98;;;8.48;;
37231;SDS011;23125;48.156;15.954;2022-11-15T08:50:56;13.65;;;8.43;;
37231;SDS011;23125;48.156;15.954;2022-11-15T08:53:25;13.18;;;7.43;;
37231;SDS011;23125;48.156;15.954;2022-11-15T08:55:51;14.70;;;9.15;;
37231;SDS011;23125;48.156;15.954;2022-11-15T08:58:17;13.85;;;8.55;;
37231;SDS011;23125;48.156;15.954;2022-11-15T09:00:43;13.27;;;8.57;;
37231;SDS011;23125;48.156;15.954;2022-11-15T09:03:08;13.02;;;8.10;;
37231;SDS011;23125;48.156;15.954;2022-11-15T09:05:37;12.93;;;7.20;;
37231;SDS011;23125;48.156;15.954;2022-11-15T09:08:03;14.75;;;8.35;;
37231;SDS011;23125;48.156;15.954;2022-11-15T09:10:29;13.82;;;7.57;;
37231;SDS011;23125;48.156;15.954;2022-11-15T09:12:56;12.75;;;7.40;;
37231;SDS011;23125;48.156;15.954;2022-11-15T09:15:23;12.02;;;7.68;;
37231;SDS011;23125;48.156;15.954;2022-11-15T09:17:48;11.68;;;7.35;;
37231;SDS011;23125;48.156;15.954;2022-11-15T09:20:14;12.57;;;7.93;;
37231;SDS011;23125;48.156;15.954;2022-11-15T09:22:41;12.90;;;7.22;;
37231;SDS011;23125;48.156;15.954;2022-11-15T09:25:07;14.15;;;8.02;;
37231;SDS011;23125;48.156;15.954;2022-11-15T09:27:33;13.85;;;8.45;;
37231;SDS011;23125;48.156;15.954;2022-11-15T09:30:00;13.18;;;7.72;;
37231;SDS011;23125;48.156;15.954;2022-11-15T09:32:28;11.38;;;7.13;;
37231;SDS011;23125;48.156;15.954;2022-11-15T09:34:55;13.25;;;7.95;;
37231;SDS011;23125;48.156;15.954;2022-11-15T09:37:22;13.00;;;8.15;;
37231;SDS011;23125;48.156;15.954;2022-11-15T09:39:48;12.25;;;7.18;;
37231;SDS011;23125;48.156;15.954;2022-11-15T09:50:43;12.27;;;6.65;;
37231;SDS011;23125;48.156;15.954;2022-11-15T09:56:20;13.18;;;7.75;;
37231;SDS011;23125;48.156;15.954;2022-11-15T10:01:32;10.40;;;6.65;;
37231;SDS011;23125;48.156;15.954;2022-11-15T10:04:22;12.13;;;7.70;;
37231;SDS011;23125;48.156;15.954;2022-11-15T10:09:39;12.27;;;8.23;;
37231;SDS011;23125;48.156;15.954;2022-11-15T10:12:21;14.93;;;8.77;;
37231;SDS011;23125;48.156;15.954;2022-11-15T10:14:49;13.95;;;7.95;;
37231;SDS011;23125;48.156;15.954;2022-11-15T10:20:20;12.30;;;8.10;;
37231;SDS011;23125;48.156;15.954;2022-11-15T10:25:20;11.98;;;7.25;;
37231;SDS011;23125;48.156;15.954;2022-11-15T10:27:53;14.63;;;8.15;;
37231;SDS011;23125;48.156;15.954;2022-11-15T10:30:30;14.35;;;7.78;;
37231;SDS011;23125;48.156;15.954;2022-11-15T10:33:23;12.18;;;7.55;;
37231;SDS011;23125;48.156;15.954;2022-11-15T10:36:13;15.40;;;8.27;;
37231;SDS011;23125;48.156;15.954;2022-11-15T10:46:33;13.15;;;7.43;;
37231;SDS011;23125;48.156;15.954;2022-11-15T10:51:57;13.25;;;8.15;;
37231;SDS011;23125;48.156;15.954;2022-11-15T10:57:13;12.77;;;7.53;;
37231;SDS011;23125;48.156;15.954;2022-11-15T10:59:42;15.43;;;9.07;;
37231;SDS011;23125;48.156;15.954;2022-11-15T11:02:35;13.05;;;8.25;;
37231;SDS011;23125;48.156;15.954;2022-11-15T11:05:04;12.18;;;7.80;;
37231;SDS011;23125;48.156;15.954;2022-11-15T11:07:55;14.77;;;8.70;;
37231;SDS011;23125;48.156;15.954;2022-11-15T11:10:23;15.32;;;9.07;;
37231;SDS011;23125;48.156;15.954;2022-11-15T11:12:48;14.73;;;8.55;;
37231;SDS011;23125;48.156;15.954;2022-11-15T11:15:15;14.18;;;8.45;;
37231;SDS011;23125;48.156;15.954;2022-11-15T11:20:57;13.30;;;8.52;;
37231;SDS011;23125;48.156;15.954;2022-11-15T11:25:51;14.73;;;8.57;;
37231;SDS011;23125;48.156;15.954;2022-11-15T11:28:41;14.80;;;8.75;;
37231;SDS011;23125;48.156;15.954;2022-11-15T11:31:27;13.93;;;8.90;;
37231;SDS011;23125;48.156;15.954;2022-11-15T11:37:01;14.93;;;8.25;;
37231;SDS011;23125;48.156;15.954;2022-11-15T11:42:25;14.93;;;8.85;;
37231;SDS011;23125;48.156;15.954;2022-11-15T11:45:15;15.27;;;8.10;;
37231;SDS011;23125;48.156;15.954;2022-11-15T11:47:48;14.05;;;8.13;;
37231;SDS011;23125;48.156;15.954;2022-11-15T11:50:25;15.43;;;8.77;;
37231;SDS011;23125;48.156;15.954;2022-11-15T11:52:57;13.35;;;8.40;;
37231;SDS011;23125;48.156;15.954;2022-11-15T11:55:36;14.35;;;8.50;;
37231;SDS011;23125;48.156;15.954;2022-11-15T12:00:56;14.85;;;8.38;;
37231;SDS011;23125;48.156;15.954;2022-11-15T12:14:42;12.63;;;7.82;;
37231;SDS011;23125;48.156;15.954;2022-11-15T12:17:22;14.10;;;8.60;;
37231;SDS011;23125;48.156;15.954;2022-11-15T12:20:02;14.93;;;8.82;;
37231;SDS011;23125;48.156;15.954;2022-11-15T12:22:41;12.88;;;8.10;;
37231;SDS011;23125;48.156;15.954;2022-11-15T12:25:22;14.55;;;8.25;;
37231;SDS011;23125;48.156;15.954;2022-11-15T12:30:46;16.52;;;9.45;;
37231;SDS011;23125;48.156;15.954;2022-11-15T12:33:31;16.33;;;9.32;;
37231;SDS011;23125;48.156;15.954;2022-11-15T12:39:03;17.23;;;9.68;;
37231;SDS011;23125;48.156;15.954;2022-11-15T12:41:40;15.30;;;8.88;;
37231;SDS011;23125;48.156;15.954;2022-11-15T12:44:11;15.65;;;9.40;;
37231;SDS011;23125;48.156;15.954;2022-11-15T13:02:42;16.08;;;9.45;;
37231;SDS011;23125;48.156;15.954;2022-11-15T13:17:38;16.60;;;9.95;;
37231;SDS011;23125;48.156;15.954;2022-11-15T13:36:23;18.15;;;10.85;;
37231;SDS011;23125;48.156;15.954;2022-11-15T13:41:34;19.83;;;10.18;;
37231;SDS011;23125;48.156;15.954;2022-11-15T13:44:02;18.83;;;10.23;;
37231;SDS011;23125;48.156;15.954;2022-11-15T13:46:30;16.45;;;9.85;;
37231;SDS011;23125;48.156;15.954;2022-11-15T13:49:01;19.00;;;9.88;;
37231;SDS011;23125;48.156;15.954;2022-11-15T13:51:50;18.92;;;10.43;;
37231;SDS011;23125;48.156;15.954;2022-11-15T13:54:29;17.30;;;10.35;;
37231;SDS011;23125;48.156;15.954;2022-11-15T13:57:03;15.55;;;8.90;;
37231;SDS011;23125;48.156;15.954;2022-11-15T13:59:37;19.38;;;9.95;;
37231;SDS011;23125;48.156;15.954;2022-11-15T14:02:18;16.90;;;9.77;;
37231;SDS011;23125;48.156;15.954;2022-11-15T14:04:56;18.13;;;10.05;;
37231;SDS011;23125;48.156;15.954;2022-11-15T14:07:39;17.92;;;9.95;;
37231;SDS011;23125;48.156;15.954;2022-11-15T14:10:24;17.63;;;9.82;;
37231;SDS011;23125;48.156;15.954;2022-11-15T14:12:58;19.90;;;10.80;;
37231;SDS011;23125;48.156;15.954;2022-11-15T14:15:27;18.02;;;10.43;;
37231;SDS011;23125;48.156;15.954;2022-11-15T14:17:53;20.88;;;11.00;;
37231;SDS011;23125;48.156;15.954;2022-11-15T14:20:24;19.52;;;10.60;;
37231;SDS011;23125;48.156;15.954;2022-11-15T14:22:54;21.42;;;11.05;;
37231;SDS011;23125;48.156;15.954;2022-11-15T14:25:22;20.40;;;11.40;;
37231;SDS011;23125;48.156;15.954;2022-11-15T14:28:10;19.88;;;10.75;;
37231;SDS011;23125;48.156;15.954;2022-11-15T14:30:40;19.75;;;11.13;;
37231;SDS011;23125;48.156;15.954;2022-11-15T14:33:21;21.05;;;11.30;;
37231;SDS011;23125;48.156;15.954;2022-11-15T14:36:02;19.63;;;9.82;;
37231;SDS011;23125;48.156;15.954;2022-11-15T14:38:42;20.67;;;10.95;;
37231;SDS011;23125;48.156;15.954;2022-11-15T14:43:48;20.63;;;10.88;;
37231;SDS011;23125;48.156;15.954;2022-11-15T14:46:14;22.40;;;10.27;;
37231;SDS011;23125;48.156;15.954;2022-11-15T14:48:40;21.38;;;11.02;;
37231;SDS011;23125;48.156;15.954;2022-11-15T14:51:15;22.05;;;11.30;;
37231;SDS011;23125;48.156;15.954;2022-11-15T14:53:43;19.55;;;11.57;;
37231;SDS011;23125;48.156;15.954;2022-11-15T14:56:10;21.08;;;11.55;;
37231;SDS011;23125;48.156;15.954;2022-11-15T14:58:37;23.05;;;11.05;;
37231;SDS011;23125;48.156;15.954;2022-11-15T15:01:09;17.77;;;9.07;;
37231;SDS011;23125;48.156;15.954;2022-11-15T15:03:42;19.90;;;11.27;;
37231;SDS011;23125;48.156;15.954;2022-11-15T15:06:09;21.85;;;11.20;;
37231;SDS011;23125;48.156;15.954;2022-11-15T15:08:38;19.05;;;10.63;;
37231;SDS011;23125;48.156;15.954;2022-11-15T15:11:08;20.98;;;10.90;;
37231;SDS011;23125;48.156;15.954;2022-11-15T15:13:39;22.02;;;10.98;;
37231;SDS011;23125;48.156;15.954;2022-11-15T15:16:06;19.35;;;10.52;;
37231;SDS011;23125;48.156;15.954;2022-11-15T15:18:32;21.13;;;10.70;;
37231;SDS011;23125;48.156;15.954;2022-11-15T15:20:58;18.52;;;10.27;;
37231;SDS011;23125;48.156;15.954;2022-11-15T15:23:28;21.05;;;11.40;;
37231;SDS011;23125;48.156;15.954;2022-11-15T15:25:56;18.63;;;10.73;;
37231;SDS011;23125;48.156;15.954;2022-11-15T15:28:22;20.33;;;10.80;;
37231;SDS011;23125;48.156;15.954;2022-11-15T15:30:48;18.85;;;10.68;;
37231;SDS011;23125;48.156;15.954;2022-11-15T15:33:14;19.40;;;10.38;;
37231;SDS011;23125;48.156;15.954;2022-11-15T15:35:41;19.60;;;10.55;;
37231;SDS011;23125;48.156;15.954;2022-11-15T15:38:13;18.73;;;10.88;;
37231;SDS011;23125;48.156;15.954;2022-11-15T15:40:40;17.55;;;9.38;;
37231;SDS011;23125;48.156;15.954;2022-11-15T15:43:06;17.63;;;10.15;;
37231;SDS011;23125;48.156;15.954;2022-11-15T15:45:35;19.60;;;10.15;;
37231;SDS011;23125;48.156;15.954;2022-11-15T15:48:04;17.83;;;10.05;;
37231;SDS011;23125;48.156;15.954;2022-11-15T15:50:33;17.05;;;8.95;;
37231;SDS011;23125;48.156;15.954;2022-11-15T15:53:00;17.42;;;10.07;;
37231;SDS011;23125;48.156;15.954;2022-11-15T15:55:28;21.02;;;12.05;;
37231;SDS011;23125;48.156;15.954;2022-11-15T15:57:55;20.45;;;12.15;;
37231;SDS011;23125;48.156;15.954;2022-11-15T16:00:21;20.80;;;11.02;;
37231;SDS011;23125;48.156;15.954;2022-11-15T16:02:50;21.53;;;10.87;;
37231;SDS011;23125;48.156;15.954;2022-11-15T16:05:17;19.33;;;10.07;;
37231;SDS011;23125;48.156;15.954;2022-11-15T16:07:43;20.50;;;9.60;;
37231;SDS011;23125;48.156;15.954;2022-11-15T16:10:16;19.38;;;10.82;;
37231;SDS011;23125;48.156;15.954;2022-11-15T16:12:44;18.63;;;10.07;;
37231;SDS011;23125;48.156;15.954;2022-11-15T16:15:10;21.55;;;11.35;;
37231;SDS011;23125;48.156;15.954;2022-11-15T16:17:54;20.05;;;11.10;;
37231;SDS011;23125;48.156;15.954;2022-11-15T16:20:23;20.40;;;10.10;;
37231;SDS011;23125;48.156;15.954;2022-11-15T16:22:54;19.10;;;10.35;;
37231;SDS011;23125;48.156;15.954;2022-11-15T16:25:20;19.17;;;10.70;;
37231;SDS011;23125;48.156;15.954;2022-11-15T16:27:46;19.00;;;10.93;;
37231;SDS011;23125;48.156;15.954;2022-11-15T16:30:16;23.30;;;11.52;;
37231;SDS011;23125;48.156;15.954;2022-11-15T16:32:44;19.33;;;11.48;;
37231;SDS011;23125;48.156;15.954;2022-11-15T16:35:11;21.00;;;11.32;;
37231;SDS011;23125;48.156;15.954;2022-11-15T16:37:38;20.45;;;11.65;;
37231;SDS011;23125;48.156;15.954;2022-11-15T16:40:28;20.40;;;11.15;;
37231;SDS011;23125;48.156;15.954;2022-11-15T16:42:56;20.85;;;12.00;;
37231;SDS011;23125;48.156;15.954;2022-11-15T16:45:24;26.35;;;13.38;;
37231;SDS011;23125;48.156;15.954;2022-11-15T16:47:53;24.40;;;12.68;;
37231;SDS011;23125;48.156;15.954;2022-11-15T16:52:57;22.27;;;11.90;;
37231;SDS011;23125;48.156;15.954;2022-11-15T16:55:26;22.42;;;12.15;;
37231;SDS011;23125;48.156;15.954;2022-11-15T16:57:54;19.83;;;11.18;;
37231;SDS011;23125;48.156;15.954;2022-11-15T17:00:26;20.73;;;11.52;;
37231;SDS011;23125;48.156;15.954;2022-11-15T17:02:52;19.83;;;11.18;;